Time;durP1;ratioP1;P1;durP2;ratioP2;P2;SDS_P1;SDS_P2;PMS_P1;PMS_P2;Temp;Humidity;BMP_temperature;BMP_pressure;BME280_temperature;BME280_humidity;BME280_pressure;Samples;Min_cycle;Max_cycle;Signal;HPM_P1;HPM_P2
2022/08/04 00:01:42;;;;;;;5.38;0.50;;;;;;;22.71;62.38;100933.09;7382893;19;20014;-65
2022/08/04 00:04:16;;;;;;;4.00;0.50;;;;;;;22.70;62.45;100932.25;7377903;19;20041;-64
2022/08/04 00:06:52;;;;;;;5.97;0.60;;;;;;;22.72;62.79;100934.72;7380600;19;20037;-65
2022/08/04 00:09:33;;;;;;;1.92;0.40;;;;;;;22.71;61.91;100936.59;7379355;19;20026;-65
2022/08/04 00:12:01;;;;;;;4.30;0.40;;;;;;;22.71;61.76;100938.44;7372356;19;20022;-65
2022/08/04 00:14:34;;;;;;;5.00;0.50;;;;;;;22.70;62.07;100940.31;7380501;19;20022;-65
2022/08/04 00:17:06;;;;;;;3.60;0.50;;;;;;;22.66;61.65;100941.78;7389625;19;20017;-65
2022/08/04 00:19:43;;;;;;;3.23;0.50;;;;;;;22.67;62.49;100939.94;7387268;19;20384;-65
2022/08/04 00:22:12;;;;;;;1.83;0.50;;;;;;;22.68;62.38;100934.34;7386692;19;20010;-65
2022/08/04 00:24:40;;;;;;;2.05;0.60;;;;;;;22.69;62.87;100938.69;7386937;19;20025;-65
2022/08/04 00:27:07;;;;;;;4.43;0.90;;;;;;;22.70;62.80;100934.13;7391501;19;20018;-65
2022/08/04 00:29:36;;;;;;;4.68;0.50;;;;;;;22.70;62.71;100940.31;7390602;19;20014;-65
2022/08/04 00:32:05;;;;;;;2.63;0.50;;;;;;;22.71;62.69;100930.41;7382542;19;20699;-65
2022/08/04 00:34:32;;;;;;;2.50;0.55;;;;;;;22.71;63.18;100933.91;7386355;19;20889;-65
2022/08/04 00:36:59;;;;;;;1.70;0.50;;;;;;;22.69;61.78;100933.31;7387472;19;20015;-64
2022/08/04 00:39:28;;;;;;;2.70;0.40;;;;;;;22.68;61.88;100936.22;7386455;19;20256;-64
2022/08/04 00:42:28;;;;;;;9.05;1.60;;;;;;;22.69;61.87;100937.84;7389671;19;20069;-64
2022/08/04 00:44:58;;;;;;;3.85;0.50;;;;;;;22.68;62.04;100939.72;7386729;19;20355;-64
2022/08/04 00:47:28;;;;;;;3.60;0.50;;;;;;;22.69;61.43;100940.53;7387368;19;20025;-64
2022/08/04 00:50:04;;;;;;;2.88;0.50;;;;;;;22.71;61.99;100933.09;7386210;19;20014;-64
2022/08/04 00:52:51;;;;;;;4.07;0.50;;;;;;;22.70;61.58;100934.94;7384973;19;20010;-64
2022/08/04 00:55:44;;;;;;;3.53;0.55;;;;;;;22.68;61.44;100930.84;7385061;19;20025;-64
2022/08/04 00:58:23;;;;;;;3.28;0.60;;;;;;;22.66;61.20;100927.56;7384810;19;20446;-66
2022/08/04 01:01:05;;;;;;;3.40;0.50;;;;;;;22.62;60.68;100924.53;7388138;19;20018;-65
2022/08/04 01:03:49;;;;;;;3.75;0.60;;;;;;;22.59;60.40;100925.00;7387260;19;20027;-65
2022/08/04 01:06:37;;;;;;;2.47;0.40;;;;;;;22.58;60.29;100923.34;7387733;19;20023;-65
2022/08/04 01:09:37;;;;;;;3.83;0.65;;;;;;;22.54;60.44;100922.19;7387493;19;20014;-65
2022/08/04 01:12:25;;;;;;;1.83;0.32;;;;;;;22.49;60.11;100917.50;7383945;19;20127;-65
2022/08/04 01:15:09;;;;;;;3.42;0.47;;;;;;;22.48;60.13;100928.47;7382394;19;20017;-64
2022/08/04 01:17:45;;;;;;;2.30;0.40;;;;;;;22.44;60.24;100922.75;7389491;19;20126;-65
2022/08/04 01:20:19;;;;;;;2.60;0.40;;;;;;;22.42;60.49;100924.00;7384277;19;20042;-65
2022/08/04 01:23:08;;;;;;;2.60;0.47;;;;;;;22.42;60.35;100930.19;7385022;19;20014;-65
2022/08/04 01:25:34;;;;;;;2.47;0.40;;;;;;;22.41;60.28;100928.53;7384001;19;20029;-64
2022/08/04 01:28:45;;;;;;;3.75;0.50;;;;;;;22.40;60.11;100924.22;7387662;19;20039;-64
2022/08/04 01:31:55;;;;;;;2.58;0.50;;;;;;;22.36;60.54;100923.03;7388603;19;20042;-65
2022/08/04 01:34:22;;;;;;;3.85;0.50;;;;;;;22.30;59.68;100926.63;7385074;19;20022;-66
2022/08/04 01:37:06;;;;;;;3.85;0.50;;;;;;;22.30;59.93;100928.53;7386218;19;20018;-64
2022/08/04 01:39:40;;;;;;;3.83;0.50;;;;;;;22.29;59.97;100926.88;7387821;19;20022;-64
2022/08/04 01:42:09;;;;;;;2.47;0.50;;;;;;;22.31;59.34;100922.91;7382782;19;20486;-65
2022/08/04 01:44:40;;;;;;;4.13;0.60;;;;;;;22.31;59.29;100925.59;7384785;19;20083;-64
2022/08/04 01:47:08;;;;;;;4.70;0.50;;;;;;;22.29;59.38;100927.69;7385580;19;20456;-65
2022/08/04 01:49:37;;;;;;;4.13;0.60;;;;;;;22.28;58.86;100920.69;7382178;19;20354;-64
2022/08/04 01:52:09;;;;;;;2.55;0.40;;;;;;;22.29;58.39;100919.66;7386843;19;20015;-65
2022/08/04 01:54:40;;;;;;;2.42;0.47;;;;;;;22.31;58.78;100920.22;7385334;19;20136;-65
2022/08/04 01:57:09;;;;;;;9.70;0.57;;;;;;;22.33;58.83;100920.84;7384023;19;20070;-64
2022/08/04 01:59:59;;;;;;;2.30;0.40;;;;;;;22.28;58.65;100915.34;7384757;19;20010;-66
2022/08/04 02:02:26;;;;;;;3.78;0.73;;;;;;;22.28;58.41;100919.88;7385374;19;20524;-66
2022/08/04 02:04:54;;;;;;;3.83;0.40;;;;;;;22.27;57.99;100923.59;7380969;19;20022;-65
2022/08/04 02:08:01;;;;;;;3.40;0.30;;;;;;;22.25;58.11;100912.28;7384930;19;20022;-66
2022/08/04 02:10:29;;;;;;;1.23;0.32;;;;;;;22.16;56.79;100917.97;7385042;19;20006;-65
2022/08/04 02:13:34;;;;;;;4.13;0.30;;;;;;;22.17;57.02;100924.13;7385502;19;20081;-65
2022/08/04 02:16:21;;;;;;;3.38;0.30;;;;;;;22.18;56.76;100925.78;7386162;19;20019;-65
2022/08/04 02:19:16;;;;;;;2.08;0.38;;;;;;;22.17;56.25;100922.28;7378591;19;20018;-66
2022/08/04 02:21:50;;;;;;;2.30;0.40;;;;;;;22.14;56.66;100922.75;7385606;19;20010;-64
2022/08/04 02:24:22;;;;;;;3.58;0.45;;;;;;;22.11;56.43;100925.03;7383831;19;20416;-66
2022/08/04 02:26:52;;;;;;;1.70;0.32;;;;;;;22.07;56.48;100927.38;7386188;19;20086;-66
2022/08/04 02:29:44;;;;;;;3.50;0.65;;;;;;;22.07;56.92;100921.19;7385268;19;20078;-64
2022/08/04 02:32:24;;;;;;;3.50;0.30;;;;;;;22.07;57.20;100930.03;7387191;19;20010;-66
2022/08/04 02:35:03;;;;;;;2.47;0.40;;;;;;;22.07;56.77;100929.22;7384354;19;20015;-65
2022/08/04 02:37:31;;;;;;;1.73;0.30;;;;;;;22.07;56.73;100923.84;7381965;19;20010;-66
2022/08/04 02:40:00;;;;;;;3.00;0.32;;;;;;;22.05;56.51;100928.63;7387322;19;20014;-66
2022/08/04 02:42:28;;;;;;;2.45;0.30;;;;;;;22.02;57.05;100929.06;7385585;19;20029;-66
2022/08/04 02:44:57;;;;;;;2.25;0.30;;;;;;;21.98;56.83;100926.03;7383928;19;20460;-67
2022/08/04 02:47:26;;;;;;;1.83;0.22;;;;;;;21.98;57.02;100933.25;7385600;19;20407;-66
2022/08/04 02:50:13;;;;;;;3.63;0.60;;;;;;;21.93;57.37;100933.09;7381996;19;20150;-65
2022/08/04 02:52:59;;;;;;;3.85;0.50;;;;;;;21.94;56.91;100926.72;7386143;19;20486;-65
2022/08/04 02:55:28;;;;;;;1.00;0.23;;;;;;;21.90;57.11;100930.84;7385348;19;20024;-66
2022/08/04 02:57:57;;;;;;;1.60;0.30;;;;;;;21.88;56.95;100924.91;7386460;19;20018;-66
2022/08/04 03:00:25;;;;;;;4.05;0.40;;;;;;;21.85;56.98;100930.69;7384385;19;20010;-66
2022/08/04 03:03:13;;;;;;;7.88;0.30;;;;;;;21.82;56.81;100928.47;7386361;19;20021;-66
2022/08/04 03:05:46;;;;;;;3.60;0.40;;;;;;;21.82;57.46;100923.13;7379656;19;20018;-65
2022/08/04 03:08:48;;;;;;;2.53;0.30;;;;;;;21.82;57.45;100920.44;7384980;19;20033;-61
2022/08/04 03:11:36;;;;;;;2.90;0.40;;;;;;;21.81;57.07;100929.50;7385962;19;20033;-61
2022/08/04 03:14:09;;;;;;;4.22;0.40;;;;;;;21.80;57.33;100926.00;7383922;19;20013;-61
2022/08/04 03:16:38;;;;;;;;;;;;;;;21.80;57.27;100925.19;7386697;19;20671;-60
2022/08/04 03:19:05;;;;;;;4.40;0.30;;;;;;;21.77;57.10;100924.59;7383171;19;19937;-61
2022/08/04 03:22:10;;;;;;;4.57;0.50;;;;;;;21.75;56.56;100923.19;7386156;19;20642;-60
2022/08/04 03:25:14;;;;;;;4.75;0.43;;;;;;;21.71;57.79;100922.00;7382397;19;20081;-66
2022/08/04 03:28:06;;;;;;;1.73;0.40;;;;;;;21.71;59.22;100913.97;7383748;19;20014;-66
2022/08/04 03:31:07;;;;;;;4.57;0.40;;;;;;;21.75;61.86;100917.81;7384823;19;20021;-65
2022/08/04 03:33:44;;;;;;;3.83;0.47;;;;;;;21.69;58.83;100914.16;7382831;19;20018;-65
2022/08/04 03:36:38;;;;;;;2.33;0.43;;;;;;;21.72;59.02;100920.97;7385580;19;20481;-62
2022/08/04 03:39:36;;;;;;;4.45;0.43;;;;;;;21.71;57.78;100928.19;7383812;19;20032;-61
2022/08/04 03:42:37;;;;;;;6.78;0.80;;;;;;;21.66;57.86;100917.31;7383077;19;20019;-62
2022/08/04 03:45:24;;;;;;;2.45;0.30;;;;;;;21.61;58.32;100913.66;7381373;19;20022;-62
2022/08/04 03:47:54;;;;;;;1.55;0.40;;;;;;;21.57;58.46;100917.84;7385142;19;20018;-61
2022/08/04 03:54:13;;;;;;;3.72;0.40;;;;;;;21.53;57.67;100925.50;7379941;19;20052;-65
2022/08/04 03:56:59;;;;;;;4.03;0.73;;;;;;;21.48;57.89;100922.66;7383407;19;20385;-65
2022/08/04 03:59:41;;;;;;;4.45;0.60;;;;;;;21.46;58.50;100929.28;7383819;19;20085;-65
2022/08/04 04:02:33;;;;;;;4.45;0.73;;;;;;;21.46;58.14;100926.59;7383498;19;20007;-64
2022/08/04 04:05:42;;;;;;;5.10;0.40;;;;;;;21.43;58.49;100929.72;7377206;19;20018;-65
2022/08/04 04:08:42;;;;;;;4.15;0.40;;;;;;;21.35;58.55;100944.22;7380086;19;20430;-65
2022/08/04 04:11:39;;;;;;;2.67;0.40;;;;;;;21.32;59.59;100941.97;7384439;19;20018;-65
2022/08/04 04:14:35;;;;;;;5.95;0.50;;;;;;;21.32;59.32;100941.97;7383382;19;20024;-64
2022/08/04 04:17:47;;;;;;;4.07;0.60;;;;;;;21.32;60.39;100941.97;7384418;19;20019;-65
2022/08/04 04:20:55;;;;;;;2.58;0.60;;;;;;;21.29;59.89;100943.22;7381054;19;20070;-61
2022/08/04 04:23:39;;;;;;;3.35;0.70;;;;;;;21.25;60.03;100946.56;7383734;19;20041;-65
2022/08/04 04:26:19;;;;;;;5.32;0.65;;;;;;;21.20;60.45;100946.41;7381429;19;20021;-66
2022/08/04 04:29:04;;;;;;;6.00;0.60;;;;;;;21.19;61.27;100939.41;7383153;19;20028;-65
2022/08/04 04:31:56;;;;;;;3.78;0.70;;;;;;;21.13;61.67;100945.63;7383420;19;20018;-65
2022/08/04 04:35:11;;;;;;;3.70;0.50;;;;;;;21.10;62.17;100941.53;7378256;19;20018;-67
2022/08/04 04:38:01;;;;;;;4.47;0.63;;;;;;;21.06;62.64;100937.66;7376725;19;20050;-66
2022/08/04 04:40:38;;;;;;;7.70;1.00;;;;;;;21.04;62.78;100938.88;7382819;19;20010;-67
2022/08/04 04:43:52;;;;;;;2.88;0.50;;;;;;;21.03;62.47;100938.06;7382980;19;20433;-66
2022/08/04 04:46:53;;;;;;;5.63;0.70;;;;;;;21.02;63.06;100933.78;7380443;19;20324;-67
2022/08/04 04:49:53;;;;;;;3.72;0.60;;;;;;;21.01;62.99;100940.16;7380292;19;20398;-66
2022/08/04 04:52:35;;;;;;;6.70;0.80;;;;;;;20.99;63.65;100942.22;7381891;19;20010;-67
2022/08/04 04:55:13;;;;;;;6.85;0.80;;;;;;;20.99;63.67;100946.75;7381739;19;20130;-68
2022/08/04 04:57:42;;;;;;;5.68;0.60;;;;;;;20.99;63.59;100952.09;7382614;19;20016;-67
2022/08/04 05:00:23;;;;;;;3.55;0.85;;;;;;;21.00;63.46;100956.44;7382558;19;20007;-62
2022/08/04 05:03:22;;;;;;;4.50;0.65;;;;;;;20.99;63.73;100954.78;7391232;19;20006;-60
2022/08/04 05:06:24;;;;;;;5.30;1.48;;;;;;;20.98;64.19;100958.53;7383679;19;20015;-61
2022/08/04 05:09:01;;;;;;;3.72;0.52;;;;;;;20.98;64.90;100967.34;7388988;19;20346;-61
2022/08/04 05:12:03;;;;;;;5.63;0.60;;;;;;;21.01;64.12;100964.25;7389234;19;20011;-62
2022/08/04 05:14:52;;;;;;;4.90;0.70;;;;;;;21.00;64.17;100965.28;7389221;19;20478;-65
2022/08/04 05:17:20;;;;;;;5.63;0.70;;;;;;;20.99;63.92;100973.50;7386969;19;20021;-65
2022/08/04 05:19:58;;;;;;;5.22;0.52;;;;;;;20.95;63.85;100978.50;7386242;19;20093;-65
2022/08/04 05:22:46;;;;;;;5.03;0.52;;;;;;;20.93;64.38;100975.19;7387709;19;20014;-66
2022/08/04 05:25:18;;;;;;;6.32;1.58;;;;;;;20.92;64.63;100981.59;7387024;19;20114;-65
2022/08/04 05:28:07;;;;;;;6.07;0.70;;;;;;;20.96;64.44;100982.00;7386807;19;20010;-65
2022/08/04 05:30:47;;;;;;;5.53;0.80;;;;;;;20.97;63.63;100983.63;7388395;19;20498;-65
2022/08/04 05:33:26;;;;;;;3.60;0.60;;;;;;;20.97;63.44;100986.31;7389729;19;20031;-66
2022/08/04 05:35:58;;;;;;;4.80;0.77;;;;;;;20.97;63.85;100992.47;7387990;19;20278;-65
2022/08/04 05:38:49;;;;;;;4.10;0.40;;;;;;;20.97;63.75;100991.66;7386629;19;20487;-66
2022/08/04 05:41:17;;;;;;;3.63;0.52;;;;;;;20.97;63.82;100995.16;7389098;19;20415;-65
2022/08/04 05:43:45;;;;;;;3.67;0.55;;;;;;;21.00;63.77;100988.53;7386912;19;20380;-66
2022/08/04 05:46:16;;;;;;;6.35;0.40;;;;;;;21.02;64.25;101000.69;7387535;19;20014;-65
2022/08/04 05:48:44;;;;;;;7.15;0.52;;;;;;;21.01;63.74;100991.00;7385559;19;20391;-65
2022/08/04 05:51:13;;;;;;;5.10;0.50;;;;;;;21.02;63.68;100995.31;7386563;19;20446;-66
2022/08/04 05:53:43;;;;;;;4.95;0.60;;;;;;;21.00;63.49;100993.88;7387364;19;20045;-64
2022/08/04 05:56:12;;;;;;;5.35;0.50;;;;;;;20.97;64.01;100997.00;7387888;19;20014;-61
2022/08/04 05:58:41;;;;;;;4.35;0.60;;;;;;;20.96;64.29;100998.03;7386421;19;20013;-66
2022/08/04 06:01:10;;;;;;;4.63;0.40;;;;;;;20.92;63.78;100998.47;7387487;19;20014;-66
2022/08/04 06:03:38;;;;;;;5.63;0.40;;;;;;;20.86;63.78;101002.03;7385583;19;20022;-67
2022/08/04 06:06:08;;;;;;;6.32;0.50;;;;;;;20.82;63.92;101000.81;7385963;19;20501;-67
2022/08/04 06:08:35;;;;;;;6.90;0.40;;;;;;;20.79;64.03;101001.22;7386357;19;20025;-66
2022/08/04 06:11:04;;;;;;;7.45;0.50;;;;;;;20.74;63.85;101002.91;7387904;19;20027;-67
2022/08/04 06:14:00;;;;;;;2.25;0.63;;;;;;;20.68;64.28;100999.22;7387008;19;20078;-67
2022/08/04 06:16:34;;;;;;;3.42;0.40;;;;;;;20.66;64.73;100997.81;7387747;19;20070;-67
2022/08/04 06:19:16;;;;;;;4.03;0.50;;;;;;;20.64;64.85;101005.22;7380780;19;20583;-66
2022/08/04 06:22:05;;;;;;;3.72;0.50;;;;;;;20.62;64.54;100999.28;7386681;19;20010;-62
2022/08/04 06:24:36;;;;;;;4.40;0.40;;;;;;;20.58;64.83;101012.25;7384448;19;20098;-66
2022/08/04 06:27:05;;;;;;;4.47;0.68;;;;;;;20.59;65.21;101005.88;7385891;19;20014;-67
2022/08/04 06:29:39;;;;;;;3.20;0.40;;;;;;;20.58;64.76;101003.41;7385947;19;20483;-67
2022/08/04 06:32:35;;;;;;;5.03;0.57;;;;;;;20.56;65.03;101008.16;7387612;19;20082;-66
2022/08/04 06:35:08;;;;;;;9.93;0.60;;;;;;;20.58;65.30;101012.25;7383309;19;20078;-67
2022/08/04 06:37:36;;;;;;;2.10;0.40;;;;;;;20.60;64.96;101015.53;7383138;19;20090;-67
2022/08/04 06:40:11;;;;;;;5.50;0.80;;;;;;;20.61;65.02;101009.16;7386762;19;20039;-66
2022/08/04 06:43:00;;;;;;;2.17;0.50;;;;;;;20.62;65.11;101010.00;7384205;19;20010;-67
2022/08/04 06:45:28;;;;;;;4.97;0.93;;;;;;;20.62;65.21;101013.47;7382268;19;20481;-63
2022/08/04 06:47:55;;;;;;;5.78;1.05;;;;;;;20.62;65.41;101013.47;7384393;19;20014;-63
2022/08/04 06:50:23;;;;;;;8.13;0.60;;;;;;;20.64;65.58;101021.28;7382078;19;20010;-63
2022/08/04 06:53:10;;;;;;;6.30;1.00;;;;;;;20.66;65.71;101017.38;7382367;19;20015;-62
2022/08/04 06:55:40;;;;;;;5.00;0.95;;;;;;;20.70;65.37;101025.78;7384139;19;20082;-63
2022/08/04 06:58:08;;;;;;;5.68;0.55;;;;;;;20.70;65.63;101026.59;7384785;19;20032;-66
2022/08/04 07:00:38;;;;;;;7.45;0.50;;;;;;;20.71;65.21;101030.91;7384969;19;20021;-66
2022/08/04 07:03:06;;;;;;;8.68;1.48;;;;;;;20.70;65.02;101028.44;7385156;19;20366;-66
2022/08/04 07:05:34;;;;;;;3.50;1.33;;;;;;;20.69;65.02;101026.81;7383047;19;20018;-63
2022/08/04 07:08:02;;;;;;;7.45;0.60;;;;;;;20.72;65.14;101029.06;7385084;19;20011;-63
2022/08/04 07:10:30;;;;;;;4.60;0.50;;;;;;;20.74;64.88;101029.66;7385550;19;20020;-63
2022/08/04 07:12:58;;;;;;;4.72;0.55;;;;;;;20.76;65.14;101032.94;7381932;19;20078;-64
2022/08/04 07:15:26;;;;;;;3.42;0.40;;;;;;;20.71;64.80;101036.28;7385799;19;20007;-63
2022/08/04 07:17:58;;;;;;;3.03;0.60;;;;;;;20.71;64.62;101032.78;7386351;19;20122;-62
2022/08/04 07:20:27;;;;;;;4.50;0.60;;;;;;;20.69;64.27;101035.66;7380522;19;20015;-62
2022/08/04 07:23:05;;;;;;;3.92;0.50;;;;;;;20.70;64.32;101039.97;7383054;19;20022;-61
2022/08/04 07:25:36;;;;;;;3.33;0.50;;;;;;;20.74;64.49;101040.34;7382409;19;20021;-62
2022/08/04 07:28:25;;;;;;;6.00;0.45;;;;;;;20.80;65.01;101032.31;7384420;19;20063;-62
2022/08/04 07:30:53;;;;;;;4.60;0.70;;;;;;;20.86;64.12;101038.66;7385715;19;20110;-62
2022/08/04 07:33:21;;;;;;;5.03;0.40;;;;;;;20.91;63.71;101036.97;7383866;19;20007;-62
2022/08/04 07:35:52;;;;;;;5.40;0.55;;;;;;;20.93;62.92;101039.41;7380060;19;20026;-62
2022/08/04 07:38:40;;;;;;;4.88;0.43;;;;;;;20.95;63.48;101033.84;7384048;19;20538;-67
2022/08/04 07:41:23;;;;;;;6.32;0.47;;;;;;;20.98;63.54;101038.78;7384579;19;20010;-66
2022/08/04 07:44:07;;;;;;;3.85;0.60;;;;;;;21.03;63.53;101036.28;7382959;19;20022;-66
2022/08/04 07:46:35;;;;;;;5.10;0.60;;;;;;;21.04;63.89;101040.59;7383890;19;20025;-66
2022/08/04 07:49:03;;;;;;;4.57;0.52;;;;;;;21.12;63.71;101035.81;7380903;19;20014;-65
2022/08/04 07:51:32;;;;;;;4.15;0.50;;;;;;;21.29;62.83;101038.78;7384861;19;20046;-66
2022/08/04 07:54:01;;;;;;;5.15;0.40;;;;;;;21.34;62.65;101029.06;7382529;19;20389;-65
2022/08/04 07:56:29;;;;;;;5.93;0.60;;;;;;;21.40;62.86;101035.41;7385195;19;20070;-66
2022/08/04 07:58:55;;;;;;;6.28;0.63;;;;;;;21.41;62.34;101034.38;7380793;19;20024;-65
2022/08/04 08:01:23;;;;;;;3.08;0.50;;;;;;;21.41;61.76;101036.22;7384943;19;20010;-65
2022/08/04 08:03:52;;;;;;;2.10;0.40;;;;;;;21.37;61.76;101040.38;7380241;19;20378;-66
2022/08/04 08:06:20;;;;;;;6.55;1.05;;;;;;;21.41;61.68;101039.72;7382243;19;20007;-66
2022/08/04 08:09:00;;;;;;;7.72;0.57;;;;;;;21.42;61.86;101040.56;7383890;19;20045;-66
2022/08/04 08:11:48;;;;;;;7.78;0.60;;;;;;;21.43;61.87;101032.31;7383226;19;20435;-65
2022/08/04 08:14:35;;;;;;;4.82;0.40;;;;;;;21.42;61.82;101033.34;7380795;19;20014;-67
2022/08/04 08:17:05;;;;;;;5.50;0.47;;;;;;;21.48;61.55;101039.69;7382598;19;20379;-65
2022/08/04 08:19:36;;;;;;;2.80;1.40;;;;;;;21.59;61.97;101036.25;7379357;19;20177;-65
2022/08/04 08:22:03;;;;;;;6.65;0.75;;;;;;;21.60;61.63;101036.06;7382889;19;20362;-66
2022/08/04 08:24:34;;;;;;;3.30;0.40;;;;;;;21.60;61.91;101037.91;7381062;19;20032;-66
2022/08/04 08:27:05;;;;;;;10.40;0.82;;;;;;;21.60;61.15;101029.88;7380374;19;20031;-65
2022/08/04 08:29:33;;;;;;;5.43;0.40;;;;;;;21.59;60.30;101033.59;7382348;19;20015;-64
2022/08/04 08:32:02;;;;;;;2.85;0.52;;;;;;;21.56;61.00;101034.88;7383842;19;20115;-66
2022/08/04 08:34:35;;;;;;;6.60;0.47;;;;;;;21.59;60.82;101036.25;7378557;19;20021;-67
2022/08/04 08:37:30;;;;;;;7.43;0.55;;;;;;;21.61;60.95;101036.88;7385167;19;20014;-66
2022/08/04 08:40:29;;;;;;;7.10;0.90;;;;;;;21.58;60.10;101035.47;7387647;19;20425;-66
2022/08/04 08:43:27;;;;;;;5.10;0.50;;;;;;;21.56;60.62;101034.03;7389429;19;20887;-66
2022/08/04 08:46:14;;;;;;;4.13;0.40;;;;;;;21.57;60.75;101033.00;7388936;19;20529;-65
2022/08/04 08:48:55;;;;;;;6.22;0.50;;;;;;;21.62;60.77;101033.16;7385104;19;20454;-66
2022/08/04 08:51:53;;;;;;;4.10;0.50;;;;;;;21.63;60.70;101035.63;7391369;19;20014;-65
2022/08/04 08:54:40;;;;;;;6.25;0.70;;;;;;;21.67;60.56;101036.00;7385604;19;20017;-65
2022/08/04 08:57:36;;;;;;;7.60;1.05;;;;;;;21.69;60.60;101036.59;7388045;19;20016;-65
2022/08/04 09:00:34;;;;;;;4.55;0.40;;;;;;;21.70;60.10;101041.72;7385818;19;20029;-66
2022/08/04 09:03:25;;;;;;;3.28;0.40;;;;;;;21.71;59.41;101043.38;7387860;19;20081;-66
2022/08/04 09:06:02;;;;;;;3.25;0.30;;;;;;;21.71;59.37;101043.38;7385779;19;20006;-66
2022/08/04 09:08:59;;;;;;;7.10;1.25;;;;;;;21.74;59.54;101048.28;7387190;19;20015;-62
2022/08/04 09:11:38;;;;;;;3.20;0.30;;;;;;;21.81;59.42;101042.88;7385197;19;20409;-62
2022/08/04 09:14:22;;;;;;;3.35;0.70;;;;;;;21.99;59.05;101044.78;7386923;19;20006;-62
2022/08/04 09:17:28;;;;;;;4.72;0.40;;;;;;;22.22;57.56;101044.94;7388554;19;20010;-66
2022/08/04 09:20:12;;;;;;;10.93;2.30;;;;;;;22.36;56.33;101040.22;7384507;19;20022;-66
2022/08/04 09:22:59;;;;;;;5.05;0.80;;;;;;;22.42;56.52;101047.38;7386076;19;20089;-66
2022/08/04 09:25:53;;;;;;;3.63;0.25;;;;;;;22.42;56.52;101044.69;7384690;19;20030;-66
2022/08/04 09:28:24;;;;;;;3.50;0.30;;;;;;;22.47;57.51;101048.34;7385222;19;20010;-65
2022/08/04 09:31:18;;;;;;;6.20;0.60;;;;;;;22.51;57.50;101043.34;7388315;19;20021;-66
2022/08/04 09:34:24;;;;;;;1.90;0.30;;;;;;;22.57;56.93;101045.13;7383884;19;20010;-64
2022/08/04 09:37:12;;;;;;;3.20;0.30;;;;;;;22.63;56.61;101052.28;7385391;19;20023;-62
2022/08/04 09:40:06;;;;;;;1.77;0.30;;;;;;;22.67;56.32;101037.34;7385001;19;20118;-60
2022/08/04 09:43:16;;;;;;;4.25;0.30;;;;;;;22.67;56.33;101052.63;7342771;19;20164;-61
2022/08/04 09:45:56;;;;;;;2.13;0.40;;;;;;;22.64;55.56;101045.03;7383436;19;20381;-62
2022/08/04 09:49:00;;;;;;;4.32;0.63;;;;;;;22.68;56.32;101049.72;7384795;19;20099;-62
2022/08/04 09:51:49;;;;;;;2.65;0.30;;;;;;;22.60;55.29;101048.16;7385277;19;20550;-62
2022/08/04 09:54:46;;;;;;;4.70;0.50;;;;;;;22.58;56.34;101047.59;7384000;19;20014;-66
2022/08/04 09:57:43;;;;;;;3.28;0.30;;;;;;;22.60;55.19;101048.16;7385123;19;20383;-67
2022/08/04 10:00:15;;;;;;;2.35;0.30;;;;;;;22.66;54.91;101050.97;7383006;19;20024;-67
2022/08/04 10:02:52;;;;;;;4.05;0.40;;;;;;;22.71;54.80;101060.03;7386253;19;20066;-67
2022/08/04 10:05:24;;;;;;;3.22;0.35;;;;;;;22.75;54.66;101055.88;7380380;19;20018;-66
2022/08/04 10:07:55;;;;;;;1.15;0.20;;;;;;;22.82;54.80;101055.75;7384997;19;20359;-66
2022/08/04 10:10:55;;;;;;;156.50;16.83;;;;;;;22.86;55.41;101057.75;7384982;19;20562;-67
2022/08/04 10:13:58;;;;;;;15.27;0.90;;;;;;;22.84;55.63;101065.22;7383742;19;20024;-66
2022/08/04 10:16:44;;;;;;;4.68;0.38;;;;;;;22.80;55.84;101064.06;7386897;19;20370;-67
2022/08/04 10:19:25;;;;;;;7.25;0.73;;;;;;;22.83;55.23;101070.81;7382187;19;20082;-67
2022/08/04 10:22:01;;;;;;;7.18;0.30;;;;;;;22.92;54.74;101064.09;7386109;19;20512;-67
2022/08/04 10:25:10;;;;;;;6.85;0.28;;;;;;;22.93;54.34;101063.03;7386950;19;20415;-66
2022/08/04 10:28:03;;;;;;;2.90;0.38;;;;;;;22.81;54.24;101068.34;7381582;19;20082;-66
2022/08/04 10:30:35;;;;;;;2.58;0.30;;;;;;;22.73;55.26;101066.00;7362529;19;20024;-64
2022/08/04 10:33:11;;;;;;;5.15;0.43;;;;;;;22.79;54.89;101072.31;7381419;19;20014;-65
2022/08/04 10:35:50;;;;;;;5.93;0.30;;;;;;;22.83;54.58;101077.00;7380876;19;20014;-64
2022/08/04 10:38:39;;;;;;;29.20;13.35;;;;;;;22.91;53.84;101070.50;7383311;19;20477;-63
2022/08/04 10:41:36;;;;;;;2.78;0.65;;;;;;;23.01;54.36;101071.59;7383636;19;20478;-63
2022/08/04 10:44:12;;;;;;;5.03;0.80;;;;;;;23.11;53.38;101076.41;7377218;19;20560;-63
2022/08/04 10:46:51;;;;;;;2.38;0.47;;;;;;;23.18;53.39;101079.00;7378848;19;20022;-62
2022/08/04 10:49:27;;;;;;;1.73;0.30;;;;;;;23.19;52.91;101083.31;7379737;19;20006;-67
2022/08/04 10:52:07;;;;;;;2.00;0.25;;;;;;;23.23;52.16;101077.25;7382617;19;20346;-68
2022/08/04 10:55:04;;;;;;;0.68;0.20;;;;;;;23.27;52.24;101070.38;7382834;19;20015;-67
2022/08/04 10:57:48;;;;;;;1.40;0.20;;;;;;;23.28;52.68;101076.56;7379238;19;20377;-61
2022/08/04 11:00:26;;;;;;;6.90;0.47;;;;;;;23.25;52.17;101077.03;7380367;19;20404;-63
2022/08/04 11:03:25;;;;;;;4.43;0.30;;;;;;;23.22;52.04;101085.53;7383162;19;20008;-62
2022/08/04 11:05:54;;;;;;;1.08;0.20;;;;;;;23.17;51.73;101083.53;7380013;19;20014;-62
2022/08/04 11:08:28;;;;;;;1.25;0.20;;;;;;;23.12;51.20;101082.59;7382291;19;20010;-62
2022/08/04 11:11:13;;;;;;;2.30;0.20;;;;;;;23.14;51.65;101086.69;7383648;19;20073;-60
2022/08/04 11:13:48;;;;;;;3.10;0.20;;;;;;;23.15;52.30;101088.34;7381469;19;20034;-61
2022/08/04 11:16:25;;;;;;;1.48;0.10;;;;;;;23.19;51.96;101094.88;7380464;19;20022;-63
2022/08/04 11:19:24;;;;;;;1.98;0.20;;;;;;;23.17;50.71;101098.84;7381636;19;20022;-62
2022/08/04 11:22:24;;;;;;;0.85;0.20;;;;;;;23.15;51.48;101093.72;7384546;19;20017;-62
2022/08/04 11:25:10;;;;;;;1.15;0.22;;;;;;;23.21;51.05;101083.91;7384629;19;20070;-62
2022/08/04 11:27:49;;;;;;;0.60;0.20;;;;;;;23.28;51.77;101077.38;7378186;19;20367;-62
2022/08/04 11:30:18;;;;;;;1.90;0.30;;;;;;;23.33;51.55;101084.75;7383932;19;20010;-63
2022/08/04 11:33:15;;;;;;;2.58;0.80;;;;;;;23.35;50.85;101102.28;7384476;19;20018;-62
2022/08/04 11:36:02;;;;;;;1.13;0.52;;;;;;;23.35;50.55;101091.53;7381246;19;20014;-62
2022/08/04 11:38:47;;;;;;;1.30;0.20;;;;;;;23.34;52.32;101089.06;7384369;19;20130;-62
2022/08/04 11:41:25;;;;;;;2.13;0.30;;;;;;;23.35;51.33;101086.16;7383270;19;20016;-62
2022/08/04 11:43:59;;;;;;;1.05;0.20;;;;;;;23.40;50.33;101097.03;7381992;19;20074;-62
2022/08/04 11:46:41;;;;;;;2.17;0.20;;;;;;;23.46;50.01;101089.97;7378630;19;20023;-62
2022/08/04 11:49:25;;;;;;;4.13;0.88;;;;;;;23.54;50.36;101097.69;7380865;19;20037;-63
2022/08/04 11:51:55;;;;;;;3.25;0.20;;;;;;;23.63;48.55;101096.28;7382781;19;20380;-62
2022/08/04 11:54:22;;;;;;;1.73;0.20;;;;;;;23.71;48.88;101098.66;7380709;19;20010;-63
2022/08/04 11:56:49;;;;;;;1.90;0.40;;;;;;;23.80;49.64;101096.41;7383678;19;20010;-63
2022/08/04 11:59:26;;;;;;;3.42;0.20;;;;;;;23.90;50.15;101101.22;7384063;19;20550;-63
2022/08/04 12:02:23;;;;;;;3.25;0.20;;;;;;;23.96;49.39;101098.41;7383222;19;20365;-63
2022/08/04 12:05:00;;;;;;;1.90;0.20;;;;;;;24.00;48.66;101090.69;7380706;19;20082;-63
2022/08/04 12:08:01;;;;;;;0.73;0.20;;;;;;;24.05;49.00;101094.31;7382068;19;20066;-63
2022/08/04 12:10:44;;;;;;;1.15;0.20;;;;;;;24.05;48.61;101085.41;7385524;19;20015;-62
2022/08/04 12:13:26;;;;;;;1.48;0.20;;;;;;;24.07;49.32;101083.31;7390107;19;20018;-61
2022/08/04 12:16:09;;;;;;;1.80;0.30;;;;;;;24.08;49.53;101082.25;7391086;19;20010;-62
2022/08/04 12:18:57;;;;;;;0.77;0.20;;;;;;;24.14;49.88;101078.63;7387604;19;20019;-63
2022/08/04 12:21:40;;;;;;;2.47;0.20;;;;;;;24.20;48.21;101093.84;7390106;19;20007;-64
2022/08/04 12:24:20;;;;;;;2.33;0.20;;;;;;;24.25;47.48;101081.34;7390231;19;20014;-63
2022/08/04 12:27:03;;;;;;;2.40;0.30;;;;;;;24.31;47.71;101084.97;7389537;19;20025;-64
2022/08/04 12:29:35;;;;;;;1.83;0.20;;;;;;;24.32;47.15;101083.91;7390746;19;20014;-62
2022/08/04 12:32:12;;;;;;;4.43;0.30;;;;;;;24.34;46.96;101092.53;7391561;19;20482;-61